OAS947 SKBO-SKCL
Flight info
| Callsign | OAS947 |
|---|---|
| Flight time | 0h 33m |
| Altitude | 24000 |
| Route | KAMIS4C KAMIS W16 GIR R564 OREGA OREGA5A |
| Aircraft | B77W/H-SDE1E2E3FGHIJ2J3J4J5M1RWXY/LB1D1 |
Departure
| Time | 2026-04-21 22:33 |
|---|---|
| Airport | El Dorado International Airport (SKBO) |
Arrival
| Time | 2026-04-21 23:06 |
|---|---|
| Airport | Alfonso Bonilla Aragon International Airport (SKCL) |
| Time | Latitude | Longitude | Altitude | Speed | Heading |
|---|---|---|---|---|---|
| 2026-04-21 22:11 | 4.69839 | -74.13913 | 8371 ft | 0 kts | 217° |
| 2026-04-21 22:16 | 4.69853 | -74.13903 | 8371 ft | 4 kts | 216° |
| 2026-04-21 22:17 | 4.69875 | -74.13887 | 8371 ft | 2 kts | 216° |
| 2026-04-21 22:17 | 4.69889 | -74.13875 | 8371 ft | 4 kts | 240° |
| 2026-04-21 22:17 | 4.69894 | -74.13864 | 8371 ft | 4 kts | 289° |
| 2026-04-21 22:17 | 4.69887 | -74.13850 | 8371 ft | 3 kts | 307° |
| 2026-04-21 22:18 | 4.69903 | -74.13871 | 8371 ft | 4 kts | 307° |
| 2026-04-21 22:18 | 4.69920 | -74.13893 | 8371 ft | 4 kts | 307° |
| 2026-04-21 22:18 | 4.69936 | -74.13915 | 8371 ft | 4 kts | 307° |
| 2026-04-21 22:18 | 4.69952 | -74.13936 | 8371 ft | 4 kts | 307° |
| 2026-04-21 22:19 | 4.69969 | -74.13958 | 8371 ft | 4 kts | 307° |
| 2026-04-21 22:19 | 4.69984 | -74.13979 | 8371 ft | 3 kts | 307° |
| 2026-04-21 22:19 | 4.69986 | -74.13981 | 8371 ft | 0 kts | 307° |
| 2026-04-21 22:23 | 4.69996 | -74.13995 | 8371 ft | 4 kts | 307° |
| 2026-04-21 22:23 | 4.70017 | -74.14017 | 8371 ft | 4 kts | 323° |
| 2026-04-21 22:24 | 4.70049 | -74.14023 | 8371 ft | 6 kts | 5° |
| 2026-04-21 22:24 | 4.70100 | -74.14029 | 8371 ft | 8 kts | 334° |
| 2026-04-21 22:24 | 4.70145 | -74.14069 | 8371 ft | 9 kts | 308° |
| 2026-04-21 22:24 | 4.70184 | -74.14123 | 8371 ft | 10 kts | 307° |
| 2026-04-21 22:25 | 4.70224 | -74.14176 | 8371 ft | 10 kts | 307° |
| 2026-04-21 22:25 | 4.70264 | -74.14229 | 8371 ft | 10 kts | 308° |
| 2026-04-21 22:25 | 4.70305 | -74.14282 | 8371 ft | 10 kts | 308° |
| 2026-04-21 22:25 | 4.70346 | -74.14335 | 8371 ft | 10 kts | 308° |
| 2026-04-21 22:26 | 4.70385 | -74.14389 | 8371 ft | 10 kts | 301° |
| 2026-04-21 22:26 | 4.70370 | -74.14447 | 8371 ft | 10 kts | 216° |
| 2026-04-21 22:26 | 4.70315 | -74.14486 | 8371 ft | 10 kts | 215° |
| 2026-04-21 22:26 | 4.70260 | -74.14525 | 8371 ft | 10 kts | 215° |
| 2026-04-21 22:27 | 4.70205 | -74.14564 | 8371 ft | 10 kts | 215° |
| 2026-04-21 22:27 | 4.70151 | -74.14604 | 8371 ft | 10 kts | 217° |
| 2026-04-21 22:27 | 4.70090 | -74.14654 | 8371 ft | 12 kts | 223° |
| 2026-04-21 22:27 | 4.70022 | -74.14708 | 8371 ft | 13 kts | 217° |
| 2026-04-21 22:28 | 4.69952 | -74.14760 | 8371 ft | 13 kts | 217° |
| 2026-04-21 22:28 | 4.69882 | -74.14812 | 8371 ft | 13 kts | 216° |
| 2026-04-21 22:28 | 4.69809 | -74.14860 | 8371 ft | 13 kts | 199° |
| 2026-04-21 22:28 | 4.69738 | -74.14822 | 8371 ft | 13 kts | 129° |
| 2026-04-21 22:29 | 4.69683 | -74.14752 | 8370 ft | 13 kts | 128° |
| 2026-04-21 22:29 | 4.69630 | -74.14682 | 8371 ft | 13 kts | 126° |
| 2026-04-21 22:29 | 4.69578 | -74.14611 | 8370 ft | 13 kts | 126° |
| 2026-04-21 22:29 | 4.69525 | -74.14539 | 8371 ft | 13 kts | 127° |
| 2026-04-21 22:30 | 4.69471 | -74.14469 | 8371 ft | 13 kts | 127° |
| 2026-04-21 22:30 | 4.69417 | -74.14398 | 8371 ft | 13 kts | 127° |
| 2026-04-21 22:30 | 4.69352 | -74.14313 | 8371 ft | 16 kts | 127° |
| 2026-04-21 22:30 | 4.69285 | -74.14224 | 8371 ft | 16 kts | 127° |
| 2026-04-21 22:31 | 4.69218 | -74.14135 | 8371 ft | 16 kts | 127° |
| 2026-04-21 22:31 | 4.69129 | -74.14086 | 8371 ft | 16 kts | 198° |
| 2026-04-21 22:31 | 4.69038 | -74.14150 | 8371 ft | 16 kts | 221° |
| 2026-04-21 22:31 | 4.69005 | -74.14180 | 8371 ft | 8 kts | 234° |
| 2026-04-21 22:32 | 4.69032 | -74.14254 | 8371 ft | 18 kts | 307° |
| 2026-04-21 22:32 | 4.69228 | -74.14508 | 8369 ft | 86 kts | 308° |
| 2026-04-21 22:32 | 4.69755 | -74.15206 | 8371 ft | 165 kts | 307° |
| 2026-04-21 22:32 | 4.70574 | -74.16296 | 8628 ft | 214 kts | 307° |
| 2026-04-21 22:33 | 4.71469 | -74.17506 | 9783 ft | 218 kts | 307° |
| 2026-04-21 22:33 | 4.72383 | -74.18739 | 10579 ft | 223 kts | 307° |
| 2026-04-21 22:33 | 4.73305 | -74.19986 | 11183 ft | 222 kts | 307° |
| 2026-04-21 22:33 | 4.74204 | -74.21238 | 11752 ft | 221 kts | 300° |
| 2026-04-21 22:34 | 4.74674 | -74.22732 | 12043 ft | 236 kts | 279° |
| 2026-04-21 22:34 | 4.74862 | -74.24464 | 12003 ft | 262 kts | 266° |
| 2026-04-21 22:34 | 4.74390 | -74.26230 | 11977 ft | 266 kts | 248° |
| 2026-04-21 22:34 | 4.73652 | -74.27930 | 11982 ft | 266 kts | 247° |
| 2026-04-21 22:35 | 4.72932 | -74.29651 | 11992 ft | 269 kts | 249° |
| 2026-04-21 22:35 | 4.72261 | -74.31407 | 11995 ft | 271 kts | 251° |
| 2026-04-21 22:35 | 4.71616 | -74.33191 | 11991 ft | 274 kts | 251° |
| 2026-04-21 22:35 | 4.70980 | -74.34991 | 11972 ft | 273 kts | 251° |
| 2026-04-21 22:36 | 4.69584 | -74.38527 | 12061 ft | 283 kts | 247° |
| 2026-04-21 22:36 | 4.68759 | -74.40395 | 12445 ft | 300 kts | 247° |
| 2026-04-21 22:36 | 4.67734 | -74.42232 | 12947 ft | 309 kts | 228° |
| 2026-04-21 22:37 | 4.66036 | -74.43568 | 13644 ft | 314 kts | 211° |
| 2026-04-21 22:37 | 4.64134 | -74.44676 | 14411 ft | 318 kts | 211° |
| 2026-04-21 22:37 | 4.62242 | -74.45784 | 15172 ft | 320 kts | 211° |
| 2026-04-21 22:37 | 4.60320 | -74.46926 | 15949 ft | 322 kts | 212° |
| 2026-04-21 22:38 | 4.58398 | -74.48100 | 16688 ft | 326 kts | 212° |
| 2026-04-21 22:38 | 4.56451 | -74.49301 | 17426 ft | 330 kts | 212° |
| 2026-04-21 22:38 | 4.54489 | -74.50513 | 18180 ft | 334 kts | 212° |
| 2026-04-21 22:38 | 4.52504 | -74.51738 | 18870 ft | 337 kts | 212° |
| 2026-04-21 22:39 | 4.51149 | -74.52574 | 19336 ft | 339 kts | 212° |
| 2026-04-21 22:39 | 4.48482 | -74.54218 | 20279 ft | 341 kts | 212° |
| 2026-04-21 22:39 | 4.47110 | -74.55063 | 20740 ft | 344 kts | 212° |
| 2026-04-21 22:39 | 4.45057 | -74.56328 | 21370 ft | 348 kts | 211° |
| 2026-04-21 22:40 | 4.42988 | -74.57603 | 22029 ft | 352 kts | 211° |
| 2026-04-21 22:40 | 4.40918 | -74.58878 | 22701 ft | 355 kts | 211° |
| 2026-04-21 22:40 | 4.38806 | -74.60178 | 23372 ft | 358 kts | 211° |
| 2026-04-21 22:40 | 4.36720 | -74.61558 | 23917 ft | 362 kts | 220° |
| 2026-04-21 22:41 | 4.35071 | -74.63443 | 24128 ft | 363 kts | 236° |
| 2026-04-21 22:41 | 4.33667 | -74.65620 | 24112 ft | 381 kts | 236° |
| 2026-04-21 22:41 | 4.32197 | -74.67873 | 24120 ft | 397 kts | 236° |
| 2026-04-21 22:41 | 4.30621 | -74.70216 | 24104 ft | 413 kts | 235° |
| 2026-04-21 22:42 | 4.28949 | -74.72627 | 24099 ft | 428 kts | 234° |
| 2026-04-21 22:42 | 4.27213 | -74.75107 | 24082 ft | 442 kts | 234° |
| 2026-04-21 22:42 | 4.25422 | -74.77665 | 24077 ft | 455 kts | 234° |
| 2026-04-21 22:42 | 4.23591 | -74.80288 | 24065 ft | 463 kts | 234° |
| 2026-04-21 22:43 | 4.21729 | -74.82963 | 24062 ft | 474 kts | 234° |
| 2026-04-21 22:43 | 4.19829 | -74.85708 | 24057 ft | 484 kts | 236° |
| 2026-04-21 22:43 | 4.18077 | -74.88602 | 24037 ft | 489 kts | 242° |
| 2026-04-21 22:43 | 4.16519 | -74.91638 | 24029 ft | 490 kts | 243° |
| 2026-04-21 22:44 | 4.14991 | -74.94685 | 24022 ft | 489 kts | 243° |
| 2026-04-21 22:44 | 4.13467 | -74.97726 | 24017 ft | 489 kts | 243° |
| 2026-04-21 22:44 | 4.11938 | -75.00763 | 24015 ft | 488 kts | 243° |
| 2026-04-21 22:44 | 4.10397 | -75.03800 | 24017 ft | 488 kts | 242° |
| 2026-04-21 22:45 | 4.08855 | -75.06824 | 24007 ft | 488 kts | 242° |
| 2026-04-21 22:45 | 4.07309 | -75.09848 | 24012 ft | 487 kts | 242° |
| 2026-04-21 22:45 | 4.05761 | -75.12869 | 24011 ft | 487 kts | 242° |
| 2026-04-21 22:45 | 4.04215 | -75.15888 | 24013 ft | 488 kts | 242° |
| 2026-04-21 22:46 | 4.02666 | -75.18911 | 24014 ft | 488 kts | 242° |
| 2026-04-21 22:46 | 4.01118 | -75.21933 | 24007 ft | 488 kts | 242° |
| 2026-04-21 22:46 | 3.99569 | -75.24959 | 24010 ft | 488 kts | 242° |
| 2026-04-21 22:46 | 3.98022 | -75.27981 | 24012 ft | 488 kts | 242° |
| 2026-04-21 22:47 | 3.96474 | -75.31003 | 24008 ft | 481 kts | 242° |
| 2026-04-21 22:47 | 3.94980 | -75.33922 | 24002 ft | 462 kts | 242° |
| 2026-04-21 22:47 | 3.93542 | -75.36732 | 24004 ft | 444 kts | 242° |
| 2026-04-21 22:47 | 3.92157 | -75.39436 | 24009 ft | 430 kts | 242° |
| 2026-04-21 22:48 | 3.90784 | -75.42117 | 24030 ft | 434 kts | 242° |
| 2026-04-21 22:48 | 3.89408 | -75.44802 | 24009 ft | 429 kts | 242° |
| 2026-04-21 22:48 | 3.88065 | -75.47425 | 23963 ft | 419 kts | 242° |
| 2026-04-21 22:48 | 3.86752 | -75.49989 | 23904 ft | 408 kts | 243° |
| 2026-04-21 22:49 | 3.85516 | -75.52512 | 23833 ft | 399 kts | 244° |
| 2026-04-21 22:49 | 3.84342 | -75.54996 | 23723 ft | 392 kts | 244° |
| 2026-04-21 22:49 | 3.83192 | -75.57458 | 23489 ft | 388 kts | 244° |
| 2026-04-21 22:49 | 3.82049 | -75.59904 | 23148 ft | 387 kts | 244° |
| 2026-04-21 22:50 | 3.80921 | -75.62309 | 22781 ft | 387 kts | 244° |
| 2026-04-21 22:50 | 3.79769 | -75.64757 | 22463 ft | 384 kts | 244° |
| 2026-04-21 22:50 | 3.78645 | -75.67140 | 22193 ft | 382 kts | 244° |
| 2026-04-21 22:50 | 3.77499 | -75.69565 | 21902 ft | 380 kts | 244° |
| 2026-04-21 22:51 | 3.76384 | -75.71923 | 21613 ft | 378 kts | 244° |
| 2026-04-21 22:51 | 3.75248 | -75.74323 | 21321 ft | 376 kts | 244° |
| 2026-04-21 22:51 | 3.74127 | -75.76690 | 21034 ft | 375 kts | 244° |
| 2026-04-21 22:51 | 3.73015 | -75.79042 | 20734 ft | 372 kts | 244° |
| 2026-04-21 22:52 | 3.71911 | -75.81374 | 20381 ft | 370 kts | 244° |
| 2026-04-21 22:52 | 3.70824 | -75.83669 | 19988 ft | 369 kts | 244° |
| 2026-04-21 22:52 | 3.69727 | -75.85986 | 19576 ft | 368 kts | 244° |
| 2026-04-21 22:52 | 3.68633 | -75.88297 | 19159 ft | 367 kts | 244° |
| 2026-04-21 22:53 | 3.67541 | -75.90604 | 18733 ft | 367 kts | 244° |
| 2026-04-21 22:53 | 3.66834 | -75.92096 | 18465 ft | 366 kts | 244° |
| 2026-04-21 22:53 | 3.65743 | -75.94400 | 17988 ft | 366 kts | 245° |
| 2026-04-21 22:53 | 3.64656 | -75.96696 | 17545 ft | 364 kts | 245° |
| 2026-04-21 22:54 | 3.63591 | -75.98944 | 17272 ft | 345 kts | 245° |
| 2026-04-21 22:54 | 3.62597 | -76.01044 | 16921 ft | 324 kts | 245° |
| 2026-04-21 22:54 | 3.61641 | -76.03062 | 16369 ft | 317 kts | 245° |
| 2026-04-21 22:54 | 3.60710 | -76.05025 | 16105 ft | 310 kts | 245° |
| 2026-04-21 22:55 | 3.59789 | -76.06973 | 15889 ft | 305 kts | 245° |
| 2026-04-21 22:55 | 3.58895 | -76.08867 | 15367 ft | 298 kts | 245° |
| 2026-04-21 22:55 | 3.58018 | -76.10725 | 14720 ft | 293 kts | 245° |
| 2026-04-21 22:55 | 3.57150 | -76.12563 | 14024 ft | 292 kts | 245° |
| 2026-04-21 22:56 | 3.56267 | -76.14431 | 13544 ft | 298 kts | 245° |
| 2026-04-21 22:56 | 3.55379 | -76.16311 | 13364 ft | 301 kts | 245° |
| 2026-04-21 22:56 | 3.54483 | -76.18207 | 13110 ft | 302 kts | 245° |
| 2026-04-21 22:56 | 3.53586 | -76.20106 | 12681 ft | 299 kts | 245° |
| 2026-04-21 22:57 | 3.52703 | -76.21976 | 11941 ft | 296 kts | 245° |
| 2026-04-21 22:57 | 3.51845 | -76.23792 | 11628 ft | 275 kts | 245° |
| 2026-04-21 22:57 | 3.51057 | -76.25459 | 11329 ft | 260 kts | 245° |
| 2026-04-21 22:57 | 3.50304 | -76.27051 | 11021 ft | 245 kts | 243° |
| 2026-04-21 22:58 | 3.49303 | -76.28342 | 10672 ft | 229 kts | 213° |
| 2026-04-21 22:58 | 3.47868 | -76.29011 | 10550 ft | 231 kts | 197° |
| 2026-04-21 22:58 | 3.46292 | -76.29395 | 10224 ft | 234 kts | 192° |
| 2026-04-21 22:58 | 3.44711 | -76.29723 | 9914 ft | 230 kts | 192° |
| 2026-04-21 22:59 | 3.43160 | -76.30044 | 9609 ft | 224 kts | 192° |
| 2026-04-21 22:59 | 3.41658 | -76.30363 | 9332 ft | 217 kts | 192° |
| 2026-04-21 22:59 | 3.40189 | -76.30681 | 9090 ft | 216 kts | 192° |
| 2026-04-21 22:59 | 3.38707 | -76.31005 | 8860 ft | 221 kts | 192° |
| 2026-04-21 23:00 | 3.37208 | -76.31335 | 8575 ft | 215 kts | 192° |
| 2026-04-21 23:00 | 3.35799 | -76.31645 | 8300 ft | 199 kts | 192° |
| 2026-04-21 23:00 | 3.34462 | -76.31941 | 8128 ft | 197 kts | 193° |
| 2026-04-21 23:00 | 3.33239 | -76.32513 | 7897 ft | 197 kts | 226° |
| 2026-04-21 23:01 | 3.32668 | -76.33726 | 7684 ft | 196 kts | 267° |
| 2026-04-21 23:01 | 3.32979 | -76.35027 | 7479 ft | 195 kts | 296° |
| 2026-04-21 23:01 | 3.33636 | -76.36227 | 7236 ft | 197 kts | 300° |
| 2026-04-21 23:01 | 3.34321 | -76.37408 | 6986 ft | 196 kts | 300° |
| 2026-04-21 23:02 | 3.35006 | -76.38589 | 6741 ft | 195 kts | 300° |
| 2026-04-21 23:02 | 3.35693 | -76.39765 | 6521 ft | 196 kts | 304° |
| 2026-04-21 23:02 | 3.36707 | -76.40612 | 6230 ft | 190 kts | 343° |
| 2026-04-21 23:02 | 3.38004 | -76.40690 | 6048 ft | 189 kts | 2° |
| 2026-04-21 23:03 | 3.39338 | -76.40616 | 5794 ft | 193 kts | 2° |
| 2026-04-21 23:03 | 3.40667 | -76.40514 | 5538 ft | 190 kts | 6° |
| 2026-04-21 23:03 | 3.41958 | -76.40321 | 5276 ft | 185 kts | 9° |
| 2026-04-21 23:03 | 3.43210 | -76.40105 | 5058 ft | 185 kts | 9° |
| 2026-04-21 23:04 | 3.44450 | -76.39888 | 4820 ft | 171 kts | 9° |
| 2026-04-21 23:04 | 3.45560 | -76.39694 | 4618 ft | 159 kts | 9° |
| 2026-04-21 23:04 | 3.46671 | -76.39500 | 4381 ft | 161 kts | 9° |
| 2026-04-21 23:04 | 3.47762 | -76.39310 | 4180 ft | 162 kts | 9° |
| 2026-04-21 23:05 | 3.48876 | -76.39116 | 3940 ft | 161 kts | 9° |
| 2026-04-21 23:05 | 3.49938 | -76.38931 | 3756 ft | 158 kts | 8° |
| 2026-04-21 23:05 | 3.51015 | -76.38742 | 3558 ft | 156 kts | 9° |
| 2026-04-21 23:05 | 3.52071 | -76.38557 | 3371 ft | 154 kts | 9° |
| 2026-04-21 23:06 | 3.53129 | -76.38374 | 3195 ft | 155 kts | 8° |
| 2026-04-21 23:06 | 3.54124 | -76.38203 | 3173 ft | 119 kts | 11° |
| 2026-04-21 23:06 | 3.54637 | -76.38114 | 3172 ft | 54 kts | 9° |
| 2026-04-21 23:06 | 3.54941 | -76.38063 | 3170 ft | 19 kts | 10° |
| 2026-04-21 23:07 | 3.55045 | -76.38044 | 3173 ft | 8 kts | 9° |
| 2026-04-21 23:07 | 3.55093 | -76.38074 | 3177 ft | 9 kts | 300° |
| 2026-04-21 23:07 | 3.55106 | -76.38131 | 3177 ft | 9 kts | 279° |
| 2026-04-21 23:07 | 3.55102 | -76.38188 | 3177 ft | 9 kts | 235° |
| 2026-04-21 23:08 | 3.55046 | -76.38207 | 3177 ft | 9 kts | 192° |
| 2026-04-21 23:08 | 3.54986 | -76.38219 | 3176 ft | 9 kts | 192° |
| 2026-04-21 23:08 | 3.54926 | -76.38231 | 3174 ft | 9 kts | 189° |
| 2026-04-21 23:08 | 3.54871 | -76.38240 | 3174 ft | 9 kts | 189° |
| 2026-04-21 23:09 | 3.54811 | -76.38249 | 3172 ft | 9 kts | 189° |
| 2026-04-21 23:09 | 3.54750 | -76.38259 | 3172 ft | 9 kts | 189° |
| 2026-04-21 23:09 | 3.54690 | -76.38268 | 3174 ft | 9 kts | 189° |
| 2026-04-21 23:09 | 3.54598 | -76.38283 | 3172 ft | 20 kts | 189° |
| 2026-04-21 23:10 | 3.54453 | -76.38308 | 3170 ft | 21 kts | 190° |
| 2026-04-21 23:10 | 3.54308 | -76.38334 | 3172 ft | 21 kts | 189° |
| 2026-04-21 23:10 | 3.54162 | -76.38359 | 3169 ft | 21 kts | 189° |
| 2026-04-21 23:10 | 3.54016 | -76.38383 | 3168 ft | 21 kts | 189° |
| 2026-04-21 23:11 | 3.53871 | -76.38409 | 3168 ft | 21 kts | 189° |
| 2026-04-21 23:11 | 3.53726 | -76.38433 | 3167 ft | 21 kts | 190° |
| 2026-04-21 23:11 | 3.53612 | -76.38454 | 3167 ft | 2 kts | 189° |
| 2026-04-21 23:11 | 3.53585 | -76.38458 | 3167 ft | 9 kts | 189° |
| 2026-04-21 23:12 | 3.53556 | -76.38502 | 3167 ft | 9 kts | 279° |
| 2026-04-21 23:12 | 3.53518 | -76.38542 | 3167 ft | 9 kts | 189° |
| 2026-04-21 23:12 | 3.53502 | -76.38549 | 3167 ft | 2 kts | 217° |
| 2026-04-21 23:12 | 3.53502 | -76.38566 | 3167 ft | 3 kts | 282° |
| 2026-04-21 23:13 | 3.53506 | -76.38588 | 3167 ft | 3 kts | 279° |
| 2026-04-21 23:13 | 3.53510 | -76.38612 | 3167 ft | 3 kts | 278° |
| 2026-04-21 23:13 | 3.53511 | -76.38622 | 3167 ft | 0 kts | 279° |